createdAt,value
2022-12-11T00:00:52.034Z,9.90
2022-12-11T00:03:19.328Z,14.45
2022-12-11T00:05:46.832Z,17.20
2022-12-11T00:08:14.077Z,19.15
2022-12-11T00:10:47.824Z,19.20
2022-12-11T00:13:14.759Z,15.13
2022-12-11T00:15:41.542Z,16.63
2022-12-11T00:18:13.010Z,16.40
2022-12-11T00:20:39.901Z,18.38
2022-12-11T00:23:06.700Z,18.38
2022-12-11T00:25:33.553Z,15.93
2022-12-11T00:28:00.360Z,13.52
2022-12-11T00:30:27.278Z,12.65
2022-12-11T00:32:54.331Z,13.70
2022-12-11T00:35:21.156Z,12.35
2022-12-11T00:37:48.215Z,10.43
2022-12-11T00:40:15.347Z,10.95
2022-12-11T00:42:42.108Z,13.90
2022-12-11T00:45:11.925Z,12.45
2022-12-11T00:47:39.313Z,13.43
2022-12-11T00:50:07.406Z,12.40
2022-12-11T00:52:35.004Z,11.57
2022-12-11T00:55:01.923Z,13.40
2022-12-11T00:57:28.955Z,15.00
2022-12-11T00:59:55.872Z,13.55
2022-12-11T01:02:22.776Z,14.30
2022-12-11T01:04:50.103Z,14.18
2022-12-11T01:07:17.173Z,13.50
2022-12-11T01:10:02.438Z,11.68
2022-12-11T01:12:29.418Z,13.82
2022-12-11T01:14:56.198Z,12.88
2022-12-11T01:17:24.536Z,15.90
2022-12-11T01:19:55.874Z,12.45
2022-12-11T01:22:23.554Z,13.73
2022-12-11T01:24:50.351Z,14.88
2022-12-11T01:27:17.745Z,16.83
2022-12-11T01:29:46.017Z,15.70
2022-12-11T01:32:15.137Z,15.48
2022-12-11T01:34:46.074Z,16.23
2022-12-11T01:37:17.333Z,17.27
2022-12-11T01:39:44.354Z,17.30
2022-12-11T01:42:23.526Z,15.48
2022-12-11T01:44:50.483Z,14.93
2022-12-11T01:47:20.431Z,15.30
2022-12-11T01:49:52.125Z,13.57
2022-12-11T01:52:22.470Z,15.63
2022-12-11T01:54:51.514Z,20.63
2022-12-11T01:57:19.441Z,14.25
2022-12-11T01:59:46.867Z,14.88
2022-12-11T02:02:42.353Z,13.25
2022-12-11T02:05:10.382Z,13.10
2022-12-11T02:07:55.487Z,12.70
2022-12-11T02:10:33.421Z,11.70
2022-12-11T02:13:11.587Z,9.77
2022-12-11T02:15:50.896Z,10.00
2022-12-11T02:18:47.311Z,11.18
2022-12-11T02:21:23.663Z,11.68
2022-12-11T02:23:59.571Z,11.45
2022-12-11T02:26:41.426Z,10.23
2022-12-11T02:29:45.919Z,10.50
2022-12-11T02:32:24.246Z,9.57
2022-12-11T02:35:08.543Z,10.90
2022-12-11T02:37:39.263Z,13.13
2022-12-11T02:40:09.457Z,10.60
2022-12-11T02:45:08.184Z,9.35
2022-12-11T02:47:37.349Z,11.13
2022-12-11T02:50:09.974Z,10.05
2022-12-11T02:52:39.267Z,9.52
2022-12-11T02:55:08.976Z,8.85
2022-12-11T02:57:54.122Z,9.80
2022-12-11T03:00:21.936Z,9.45
2022-12-11T03:02:48.778Z,9.13
2022-12-11T03:05:16.295Z,9.90
2022-12-11T03:07:44.549Z,10.38
2022-12-11T03:10:15.276Z,9.73
2022-12-11T03:12:50.415Z,9.60
2022-12-11T03:15:23.492Z,9.23
2022-12-11T03:20:45.130Z,9.30
2022-12-11T03:23:30.858Z,8.73
2022-12-11T03:26:02.509Z,8.68
2022-12-11T03:28:49.787Z,8.55
2022-12-11T03:31:31.010Z,8.88
2022-12-11T03:34:03.837Z,10.23
2022-12-11T03:36:35.136Z,9.32
2022-12-11T03:39:13.301Z,9.45
2022-12-11T03:41:41.226Z,8.80
2022-12-11T03:44:09.418Z,10.25
2022-12-11T03:46:40.376Z,9.55
2022-12-11T03:49:19.803Z,10.00
2022-12-11T03:51:50.856Z,9.90
2022-12-11T03:54:19.109Z,9.73
2022-12-11T03:56:48.324Z,10.13
2022-12-11T03:59:15.158Z,9.95
2022-12-11T04:01:42.398Z,9.55
2022-12-11T04:04:09.398Z,10.35
2022-12-11T04:06:36.211Z,9.40
2022-12-11T04:09:03.219Z,10.77
2022-12-11T04:11:35.969Z,9.75
2022-12-11T04:14:26.035Z,10.45
2022-12-11T04:16:53.357Z,9.73
2022-12-11T04:19:39.226Z,9.70
2022-12-11T04:22:25.680Z,9.45
2022-12-11T04:24:52.761Z,10.65
2022-12-11T04:27:39.857Z,10.88
2022-12-11T04:30:10.330Z,10.88
2022-12-11T04:32:37.278Z,10.05
2022-12-11T04:35:05.026Z,9.95
2022-12-11T04:37:31.935Z,10.55
2022-12-11T04:39:58.731Z,10.40
2022-12-11T04:42:25.593Z,11.15
2022-12-11T04:44:52.447Z,11.13
2022-12-11T04:47:19.396Z,11.98
2022-12-11T04:49:46.301Z,11.82
2022-12-11T04:52:13.195Z,14.57
2022-12-11T04:54:40.174Z,14.82
2022-12-11T04:57:07.071Z,15.30
2022-12-11T04:59:33.827Z,14.60
2022-12-11T05:02:01.131Z,13.45
2022-12-11T05:04:33.200Z,14.80
2022-12-11T05:07:00.732Z,14.50
2022-12-11T05:09:28.347Z,13.95
2022-12-11T05:11:56.093Z,16.73
2022-12-11T05:14:22.956Z,13.80
2022-12-11T05:16:49.935Z,17.33
2022-12-11T05:19:16.816Z,15.40
2022-12-11T05:21:43.755Z,15.27
2022-12-11T05:24:10.797Z,14.50
2022-12-11T05:26:37.727Z,15.27
2022-12-11T05:29:04.607Z,14.30
2022-12-11T05:31:31.543Z,14.10
2022-12-11T05:33:58.402Z,13.18
2022-12-11T05:36:31.353Z,14.93
2022-12-11T05:38:59.547Z,16.05
2022-12-11T05:41:30.653Z,15.73
2022-12-11T05:43:57.631Z,15.15
2022-12-11T05:46:27.291Z,14.30
2022-12-11T05:48:56.711Z,15.20
2022-12-11T05:51:24.966Z,15.53
2022-12-11T05:53:53.653Z,14.18
2022-12-11T05:56:23.923Z,15.73
2022-12-11T06:01:21.205Z,17.60
2022-12-11T06:03:48.337Z,17.58
2022-12-11T06:06:15.351Z,17.20
2022-12-11T06:08:42.320Z,18.95
2022-12-11T06:11:09.679Z,20.05
2022-12-11T06:13:37.245Z,19.00
2022-12-11T06:16:06.377Z,20.38
2022-12-11T06:18:40.211Z,21.80
2022-12-11T06:21:27.882Z,19.73
2022-12-11T06:23:56.743Z,20.00
2022-12-11T06:26:24.556Z,23.23
2022-12-11T06:28:52.582Z,21.42
2022-12-11T06:31:20.745Z,21.77
2022-12-11T06:33:48.611Z,19.13
2022-12-11T06:36:18.634Z,16.95
2022-12-11T06:38:52.804Z,23.63
2022-12-11T06:41:20.073Z,16.30
2022-12-11T06:43:47.399Z,20.95
2022-12-11T06:46:17.353Z,16.85
2022-12-11T06:48:45.184Z,17.35
2022-12-11T06:51:20.691Z,17.65
2022-12-11T06:53:55.425Z,19.25
2022-12-11T06:56:23.464Z,20.15
2022-12-11T06:58:50.303Z,20.92
2022-12-11T07:01:20.753Z,19.17
2022-12-11T07:03:47.916Z,20.65
2022-12-11T07:06:15.356Z,21.20
2022-12-11T07:08:43.075Z,20.50
2022-12-11T07:11:13.524Z,20.40
2022-12-11T07:13:42.258Z,20.40
2022-12-11T07:16:11.333Z,21.27
2022-12-11T07:18:43.195Z,29.13
2022-12-11T07:21:12.780Z,20.67
2022-12-11T07:23:40.673Z,21.85
2022-12-11T07:26:10.548Z,23.83
2022-12-11T07:28:37.527Z,22.27
2022-12-11T07:31:13.145Z,19.13
2022-12-11T07:33:41.123Z,19.80
2022-12-11T07:36:10.618Z,19.48
2022-12-11T07:38:37.637Z,17.13
2022-12-11T07:41:11.119Z,17.27
2022-12-11T07:43:38.357Z,23.23
2022-12-11T07:46:08.257Z,18.40
2022-12-11T07:48:37.510Z,17.67
2022-12-11T07:51:20.333Z,19.25
2022-12-11T07:53:49.559Z,20.25
2022-12-11T07:56:17.663Z,17.95
2022-12-11T07:58:45.419Z,17.92
2022-12-11T08:01:17.064Z,15.93
2022-12-11T08:03:44.196Z,15.02
2022-12-11T08:06:11.598Z,15.70
2022-12-11T08:08:39.953Z,14.52
2022-12-11T08:11:12.296Z,15.10
2022-12-11T08:13:39.854Z,13.43
2022-12-11T08:16:08.383Z,12.90
2022-12-11T08:18:36.536Z,12.80
2022-12-11T08:21:21.290Z,14.27
2022-12-11T08:23:49.082Z,11.50
2022-12-11T08:26:28.025Z,12.52
2022-12-11T08:28:55.293Z,13.00
2022-12-11T08:31:22.584Z,12.85
2022-12-11T08:33:50.649Z,12.68
2022-12-11T08:36:22.207Z,12.65
2022-12-11T08:38:56.394Z,12.73
2022-12-11T08:41:34.587Z,15.55
2022-12-11T08:44:05.986Z,13.07
2022-12-11T08:46:46.701Z,10.77
2022-12-11T08:49:34.048Z,10.98
2022-12-11T08:52:18.209Z,11.48
2022-12-11T08:54:55.289Z,11.98
2022-12-11T08:57:39.760Z,10.85
2022-12-11T09:00:45.395Z,9.38
2022-12-11T09:03:28.481Z,9.85
2022-12-11T09:08:38.695Z,10.00
2022-12-11T09:11:13.483Z,10.32
2022-12-11T09:13:57.598Z,10.38
2022-12-11T09:16:29.699Z,11.07
2022-12-11T09:18:59.399Z,10.13
2022-12-11T09:21:32.189Z,9.40
2022-12-11T09:24:02.164Z,8.93
2022-12-11T09:26:30.325Z,9.13
2022-12-11T09:28:58.012Z,11.55
2022-12-11T09:31:31.022Z,9.77
2022-12-11T09:34:00.889Z,10.20
2022-12-11T09:36:28.039Z,10.80
2022-12-11T09:38:54.923Z,8.80
2022-12-11T09:41:21.841Z,10.02
2022-12-11T09:44:09.626Z,9.18
2022-12-11T09:46:38.594Z,9.38
2022-12-11T09:49:22.073Z,9.35
2022-12-11T09:51:58.493Z,8.95
2022-12-11T09:54:25.488Z,9.15
2022-12-11T09:57:20.714Z,9.55
2022-12-11T10:00:18.998Z,9.23
2022-12-11T10:02:51.051Z,10.35
2022-12-11T10:05:50.207Z,11.23
2022-12-11T10:08:29.213Z,10.07
2022-12-11T10:11:04.998Z,8.57
2022-12-11T10:13:54.879Z,9.52
2022-12-11T10:16:34.965Z,9.50
2022-12-11T10:21:38.582Z,9.98
2022-12-11T10:24:40.830Z,11.57
2022-12-11T10:27:16.965Z,10.90
2022-12-11T10:29:43.803Z,10.13
2022-12-11T10:32:24.710Z,11.73
2022-12-11T10:34:59.811Z,10.05
2022-12-11T10:37:27.086Z,10.80
2022-12-11T10:39:53.864Z,11.02
2022-12-11T10:42:22.859Z,11.05
2022-12-11T10:45:06.273Z,12.18
2022-12-11T10:47:34.223Z,14.00
2022-12-11T10:50:03.405Z,12.30
2022-12-11T10:52:35.266Z,12.07
2022-12-11T10:55:06.099Z,11.73
2022-12-11T10:57:36.236Z,12.40
2022-12-11T11:02:50.149Z,11.77
2022-12-11T11:05:28.356Z,13.88
2022-12-11T11:08:15.120Z,13.77
2022-12-11T11:11:02.170Z,12.30
2022-12-11T11:13:31.209Z,14.73
2022-12-11T11:16:10.036Z,14.45
2022-12-11T11:18:40.082Z,15.23
2022-12-11T11:21:16.026Z,14.45
2022-12-11T11:23:47.255Z,17.10
2022-12-11T11:26:18.638Z,15.90
2022-12-11T11:28:52.565Z,18.10
2022-12-11T11:31:21.801Z,17.70
2022-12-11T11:33:56.894Z,17.60
2022-12-11T11:36:26.866Z,15.77
2022-12-11T11:39:06.568Z,17.13
2022-12-11T11:42:14.294Z,18.33
2022-12-11T11:44:47.898Z,16.83
2022-12-11T11:47:22.192Z,16.23
2022-12-11T11:50:08.706Z,16.52
2022-12-11T11:52:40.356Z,15.65
2022-12-11T11:55:22.374Z,14.80
2022-12-11T11:58:03.013Z,16.77
2022-12-11T12:03:06.910Z,13.10
2022-12-11T12:05:42.107Z,18.13
2022-12-11T12:08:30.430Z,12.23
2022-12-11T12:11:04.391Z,11.38
2022-12-11T12:14:28.836Z,10.70
2022-12-11T12:17:26.985Z,11.77
2022-12-11T12:20:00.030Z,10.20
2022-12-11T12:22:44.983Z,9.35
2022-12-11T12:25:32.029Z,10.55
2022-12-11T12:28:27.896Z,10.45
2022-12-11T12:31:13.543Z,11.10
2022-12-11T12:34:01.855Z,11.00
2022-12-11T12:36:50.022Z,10.88
2022-12-11T12:39:37.164Z,10.73
2022-12-11T12:42:09.970Z,11.73
2022-12-11T12:45:03.922Z,10.60
2022-12-11T12:47:34.176Z,11.43
2022-12-11T12:52:32.570Z,10.30
2022-12-11T12:55:14.672Z,12.13
2022-12-11T12:57:49.418Z,13.02
2022-12-11T13:00:39.281Z,12.35
2022-12-11T13:03:30.056Z,11.18
2022-12-11T13:06:09.733Z,10.75
2022-12-11T13:08:47.392Z,12.30
2022-12-11T13:11:17.774Z,13.45
2022-12-11T13:13:54.522Z,12.23
2022-12-11T13:16:27.078Z,12.98
2022-12-11T13:18:54.686Z,13.60
2022-12-11T13:21:33.676Z,13.68
2022-12-11T13:24:15.839Z,14.27
2022-12-11T13:26:43.585Z,13.90
2022-12-11T13:29:29.410Z,16.23
2022-12-11T13:32:02.152Z,16.23
2022-12-11T13:34:33.731Z,13.85
2022-12-11T13:37:04.504Z,13.98
2022-12-11T13:39:35.199Z,15.18
2022-12-11T13:42:05.791Z,15.60
2022-12-11T13:44:39.716Z,14.52
2022-12-11T13:47:13.786Z,16.02
2022-12-11T13:49:43.495Z,14.95
2022-12-11T13:52:27.932Z,14.85
2022-12-11T13:54:59.328Z,14.88
2022-12-11T13:57:30.499Z,15.57
2022-12-11T13:59:59.740Z,15.38
2022-12-11T14:02:32.599Z,14.27
2022-12-11T14:05:03.684Z,15.50
2022-12-11T14:07:36.734Z,17.10
2022-12-11T14:10:14.620Z,15.95
2022-12-11T14:12:59.853Z,17.52
2022-12-11T14:15:28.844Z,18.20
2022-12-11T14:17:57.151Z,18.33
2022-12-11T14:20:28.103Z,19.05
2022-12-11T14:23:19.954Z,19.35
2022-12-11T14:25:53.985Z,19.02
2022-12-11T14:28:21.519Z,19.80
2022-12-11T14:30:52.233Z,17.13
2022-12-11T14:33:25.785Z,18.05
2022-12-11T14:35:55.103Z,16.50
2022-12-11T14:38:30.624Z,15.43
2022-12-11T14:41:03.635Z,16.25
2022-12-11T14:43:37.751Z,16.75
2022-12-11T14:46:11.153Z,15.75
2022-12-11T14:48:47.311Z,16.63
2022-12-11T14:51:17.863Z,14.20
2022-12-11T14:53:48.932Z,15.13
2022-12-11T14:56:21.265Z,16.58
2022-12-11T15:01:37.923Z,15.43
2022-12-11T15:04:19.900Z,14.73
2022-12-11T15:06:48.819Z,14.52
2022-12-11T15:09:38.373Z,13.95
2022-12-11T15:12:16.988Z,14.18
2022-12-11T15:14:57.466Z,14.82
2022-12-11T15:17:26.397Z,14.80
2022-12-11T15:20:09.086Z,17.73
2022-12-11T15:22:37.078Z,14.52
2022-12-11T15:25:04.369Z,15.13
2022-12-11T15:27:37.056Z,16.30
2022-12-11T15:30:28.551Z,14.50
2022-12-11T15:33:02.811Z,16.98
2022-12-11T15:35:29.699Z,14.32
2022-12-11T15:37:58.475Z,15.45
2022-12-11T15:40:26.429Z,19.33
2022-12-11T15:42:55.082Z,18.90
2022-12-11T15:45:25.581Z,21.55
2022-12-11T15:47:52.639Z,19.02
2022-12-11T15:50:30.420Z,19.90
2022-12-11T15:52:58.292Z,18.30
2022-12-11T15:55:27.437Z,17.42
2022-12-11T15:57:55.978Z,17.75
2022-12-11T16:00:24.188Z,20.65
2022-12-11T16:02:52.285Z,22.10
2022-12-11T16:05:20.344Z,24.55
2022-12-11T16:07:47.845Z,27.40
2022-12-11T16:10:17.843Z,34.35
2022-12-11T16:12:45.780Z,28.73
2022-12-11T16:15:19.906Z,31.73
2022-12-11T16:17:50.086Z,31.65
2022-12-11T16:20:17.779Z,29.55
2022-12-11T16:22:44.842Z,23.08
2022-12-11T16:25:12.012Z,28.35
2022-12-11T16:27:39.180Z,23.55
2022-12-11T16:30:06.712Z,25.63
2022-12-11T16:32:33.788Z,25.92
2022-12-11T16:35:01.328Z,27.60
2022-12-11T16:37:28.618Z,27.95
2022-12-11T16:39:55.635Z,29.73
2022-12-11T16:42:22.511Z,30.88
2022-12-11T16:44:49.442Z,38.20
2022-12-11T16:47:16.331Z,36.15
2022-12-11T16:49:45.765Z,40.35
2022-12-11T16:52:15.339Z,35.15
2022-12-11T16:54:46.571Z,35.47
2022-12-11T16:57:13.354Z,37.00
2022-12-11T16:59:40.277Z,34.92
2022-12-11T17:02:07.318Z,37.63
2022-12-11T17:04:34.320Z,39.85
2022-12-11T17:07:01.093Z,38.35
2022-12-11T17:09:27.970Z,45.40
2022-12-11T17:11:55.839Z,35.63
2022-12-11T17:14:22.803Z,41.17
2022-12-11T17:16:49.855Z,40.25
2022-12-11T17:19:17.675Z,47.38
2022-12-11T17:21:51.188Z,47.20
2022-12-11T17:24:18.345Z,44.85
2022-12-11T17:26:45.317Z,53.42
2022-12-11T17:29:13.049Z,46.78
2022-12-11T17:31:41.711Z,49.25
2022-12-11T17:34:08.561Z,44.88
2022-12-11T17:36:35.393Z,48.92
2022-12-11T17:39:04.023Z,50.45
2022-12-11T17:41:30.854Z,42.92
2022-12-11T17:43:57.724Z,49.92
2022-12-11T17:46:24.963Z,51.65
2022-12-11T17:48:51.975Z,51.03
2022-12-11T17:51:24.656Z,51.65
2022-12-11T17:53:55.433Z,51.53
2022-12-11T17:58:49.930Z,52.15
2022-12-11T18:01:17.385Z,55.50
2022-12-11T18:03:44.235Z,52.35
2022-12-11T18:06:13.288Z,53.20
2022-12-11T18:08:41.023Z,57.40
2022-12-11T18:11:10.811Z,46.75
2022-12-11T18:13:37.749Z,47.63
2022-12-11T18:16:26.247Z,46.53
2022-12-11T18:18:53.590Z,50.88
2022-12-11T18:21:23.568Z,55.38
2022-12-11T18:23:50.860Z,53.55
2022-12-11T18:26:20.637Z,55.15
2022-12-11T18:28:49.594Z,53.47
2022-12-11T18:31:17.171Z,54.17
2022-12-11T18:33:45.515Z,58.22
2022-12-11T18:36:15.385Z,53.38
2022-12-11T18:38:42.947Z,51.70
2022-12-11T18:41:11.614Z,56.35
2022-12-11T18:43:40.154Z,50.97
2022-12-11T18:46:09.161Z,53.03
2022-12-11T18:48:36.462Z,49.83
2022-12-11T18:51:10.799Z,49.22
2022-12-11T18:53:39.410Z,49.67
2022-12-11T18:56:15.530Z,42.28
2022-12-11T18:58:43.186Z,41.30
2022-12-11T19:01:14.140Z,41.60
2022-12-11T19:03:44.086Z,40.42
2022-12-11T19:06:14.283Z,36.25
2022-12-11T19:08:41.391Z,38.80
2022-12-11T19:11:08.613Z,42.40
2022-12-11T19:13:36.222Z,41.40
2022-12-11T19:16:03.490Z,43.60
2022-12-11T19:18:30.384Z,46.15
2022-12-11T19:21:06.697Z,44.10
2022-12-11T19:23:35.584Z,48.13
2022-12-11T19:26:02.603Z,46.08
2022-12-11T19:28:29.580Z,48.03
2022-12-11T19:30:56.669Z,44.03
2022-12-11T19:33:23.571Z,43.50
2022-12-11T19:35:59.965Z,48.58
2022-12-11T19:38:26.892Z,48.30
2022-12-11T19:40:54.253Z,47.38
2022-12-11T19:43:21.228Z,44.42
2022-12-11T19:45:48.402Z,43.00
2022-12-11T19:48:15.313Z,47.30
2022-12-11T19:50:42.285Z,43.83
2022-12-11T19:53:09.097Z,45.15
2022-12-11T19:55:35.892Z,40.75
2022-12-11T19:58:02.772Z,38.60
2022-12-11T20:00:29.779Z,38.67
2022-12-11T20:02:56.601Z,44.20
2022-12-11T20:05:23.444Z,38.38
2022-12-11T20:07:50.358Z,37.45
2022-12-11T20:10:17.242Z,31.73
2022-12-11T20:12:44.127Z,29.35
2022-12-11T20:15:11.724Z,27.45
2022-12-11T20:17:43.431Z,29.98
2022-12-11T20:20:11.529Z,30.17
2022-12-11T20:22:38.435Z,30.55
2022-12-11T20:25:05.693Z,28.83
2022-12-11T20:27:32.451Z,29.92
2022-12-11T20:29:59.284Z,29.40
2022-12-11T20:32:26.137Z,32.90
2022-12-11T20:34:56.753Z,33.63
2022-12-11T20:37:26.093Z,30.50
2022-12-11T20:39:53.004Z,34.45
2022-12-11T20:42:19.769Z,35.20
2022-12-11T20:44:49.127Z,34.90
2022-12-11T20:47:19.884Z,33.00
2022-12-11T20:52:14.184Z,31.98
2022-12-11T20:54:41.030Z,33.38
2022-12-11T20:57:07.873Z,32.42
2022-12-11T20:59:34.824Z,34.30
2022-12-11T21:02:01.734Z,33.50
2022-12-11T21:04:28.619Z,30.52
2022-12-11T21:06:55.587Z,33.47
2022-12-11T21:09:24.877Z,31.08
2022-12-11T21:11:52.394Z,31.70
2022-12-11T21:14:19.891Z,34.65
2022-12-11T21:16:47.534Z,33.78
2022-12-11T21:19:17.023Z,34.60
2022-12-11T21:21:45.452Z,29.67
2022-12-11T21:24:18.820Z,34.83
2022-12-11T21:26:46.219Z,35.83
2022-12-11T21:29:13.334Z,34.88
2022-12-11T21:31:41.857Z,32.35
2022-12-11T21:34:08.823Z,38.67
2022-12-11T21:36:35.823Z,38.70
2022-12-11T21:39:04.515Z,33.97
2022-12-11T21:41:31.380Z,38.58
2022-12-11T21:46:45.164Z,32.88
2022-12-11T21:49:12.182Z,35.17
2022-12-11T21:51:46.738Z,36.88
2022-12-11T21:54:17.569Z,35.42
2022-12-11T21:56:45.018Z,33.35
2022-12-11T21:59:12.085Z,36.63
2022-12-11T22:01:43.185Z,34.75
2022-12-11T22:04:11.325Z,34.28
2022-12-11T22:06:38.305Z,33.80
2022-12-11T22:09:05.978Z,32.47
2022-12-11T22:11:34.417Z,36.17
2022-12-11T22:14:01.898Z,35.53
2022-12-11T22:16:30.302Z,34.75
2022-12-11T22:18:57.146Z,38.70
2022-12-11T22:21:25.020Z,41.38
2022-12-11T22:23:52.185Z,38.70
2022-12-11T22:26:22.906Z,39.03
2022-12-11T22:28:50.237Z,44.17
2022-12-11T22:31:22.355Z,37.50
2022-12-11T22:33:50.775Z,39.40
2022-12-11T22:36:20.354Z,35.60
2022-12-11T22:38:47.675Z,37.72
2022-12-11T22:41:22.309Z,33.90
2022-12-11T22:43:49.990Z,37.78
2022-12-11T22:46:18.581Z,30.02
2022-12-11T22:48:45.583Z,35.10
2022-12-11T22:51:12.492Z,35.35
2022-12-11T22:53:39.430Z,40.00
2022-12-11T22:56:07.548Z,32.83
2022-12-11T22:58:34.904Z,33.15
2022-12-11T23:01:02.435Z,32.88
2022-12-11T23:03:29.446Z,32.97
2022-12-11T23:05:58.756Z,33.85
2022-12-11T23:08:27.727Z,38.03
2022-12-11T23:10:54.929Z,36.67
2022-12-11T23:13:21.843Z,31.42
2022-12-11T23:15:48.834Z,22.52
2022-12-11T23:18:15.685Z,28.02
2022-12-11T23:20:43.041Z,25.65
2022-12-11T23:23:10.234Z,26.73
2022-12-11T23:25:37.030Z,24.48
2022-12-11T23:28:04.200Z,20.92
2022-12-11T23:30:33.460Z,20.70
2022-12-11T23:33:00.645Z,22.93
2022-12-11T23:35:27.555Z,22.08
2022-12-11T23:37:54.356Z,27.50
2022-12-11T23:40:21.368Z,28.25
2022-12-11T23:42:48.440Z,38.72
2022-12-11T23:45:15.766Z,30.23
2022-12-11T23:47:43.015Z,36.53
2022-12-11T23:50:10.129Z,31.05
2022-12-11T23:52:36.977Z,32.72
2022-12-11T23:55:04.095Z,30.58
2022-12-11T23:57:30.940Z,31.92
2022-12-11T23:59:57.837Z,31.17
